Wyandotte, Michigan
Current Conditions -  °F | °C
As of 5:54 PM on Thursday 27 Nov 2014 (Local Time) from KONZ Reporting Station
Overcast Overcast  
Wind Chill: -4°   Ceiling: 5000
Heat Index:   Visibility: 10mi
Dew Point: -6°   Wind: 7mph
Humidity: 64%   Direction: 310°NW
Pressure: 30.2"   Gusts: NA
Location:  42.2°N, 83.15°W
Report Text: KONZ 272254Z AUTO 31006KT 10SM BKN050 OVC100 00/M06 A3020 RMK AO2
Loading
Personal Weather Stations






























Interactive Weather Map New forecast layout! Learn more

10-Day Weather Forecast

Advertisements
Track Severe Weather on mobile